Time;durP1;ratioP1;P1;durP2;ratioP2;P2;SDS_P1;SDS_P2;PMS_P1;PMS_P2;Temp;Humidity;BMP_temperature;BMP_pressure;BME280_temperature;BME280_humidity;BME280_pressure;Samples;Min_cycle;Max_cycle;Signal;HPM_P1;HPM_P2
2023/09/13 00:00:55;;;;;;;11.20;3.00;;;18.20;99.90;;;;;;5056128;28;20048;-69
2023/09/13 00:03:22;;;;;;;5.72;2.22;;;18.20;99.90;;;;;;5056999;28;20052;-68
2023/09/13 00:05:50;;;;;;;8.23;2.92;;;18.20;99.90;;;;;;5056846;28;20404;-68
2023/09/13 00:08:17;;;;;;;8.00;2.40;;;18.20;99.90;;;;;;5056302;28;20131;-68
2023/09/13 00:10:45;;;;;;;6.57;2.13;;;18.10;99.90;;;;;;5056720;28;20040;-69
2023/09/13 00:13:13;;;;;;;5.18;2.17;;;18.10;99.90;;;;;;5074453;28;20504;-68
2023/09/13 00:15:44;;;;;;;8.18;2.13;;;18.10;99.90;;;;;;5055772;28;20049;-68
2023/09/13 00:18:14;;;;;;;6.90;2.10;;;18.00;99.90;;;;;;5054285;28;20489;-68
2023/09/13 00:20:42;;;;;;;8.27;2.55;;;18.00;99.90;;;;;;5056330;28;20528;-68
2023/09/13 00:23:10;;;;;;;7.13;1.95;;;18.00;99.90;;;;;;5073892;28;20056;-67
2023/09/13 00:25:37;;;;;;;8.32;2.33;;;17.90;99.90;;;;;;5074267;28;20619;-68
2023/09/13 00:28:04;;;;;;;10.85;2.40;;;17.90;99.90;;;;;;5074011;28;20052;-68
2023/09/13 00:30:31;;;;;;;5.43;2.03;;;17.90;99.90;;;;;;5074161;28;20485;-69
2023/09/13 00:32:58;;;;;;;7.03;2.40;;;17.90;99.90;;;;;;5074391;28;20051;-69
2023/09/13 00:35:25;;;;;;;7.55;2.40;;;17.90;99.90;;;;;;5055777;28;20056;-68
2023/09/13 00:37:52;;;;;;;4.32;2.00;;;17.90;99.90;;;;;;5055938;28;20058;-67
2023/09/13 00:40:20;;;;;;;9.45;2.30;;;17.90;99.90;;;;;;5074197;28;20052;-68
2023/09/13 00:42:47;;;;;;;8.27;2.20;;;17.90;99.90;;;;;;5055753;28;20404;-68
2023/09/13 00:45:14;;;;;;;8.20;2.47;;;17.80;99.90;;;;;;5056137;28;20056;-67
2023/09/13 00:47:42;;;;;;;7.32;2.45;;;17.80;99.90;;;;;;5073841;28;20140;-67
2023/09/13 00:50:12;;;;;;;11.10;2.35;;;17.80;99.90;;;;;;5073331;28;20052;-67
2023/09/13 00:52:40;;;;;;;8.55;2.05;;;17.80;99.90;;;;;;5055806;28;20045;-68
2023/09/13 00:55:10;;;;;;;8.02;2.85;;;17.70;99.90;;;;;;5056148;28;20412;-67
2023/09/13 00:57:39;;;;;;;5.80;2.03;;;17.70;99.90;;;;;;5055073;28;20051;-68
2023/09/13 01:00:10;;;;;;;6.75;1.98;;;17.60;99.90;;;;;;5055894;28;20404;-67
2023/09/13 01:02:38;;;;;;;7.43;2.28;;;17.70;99.90;;;;;;5053473;28;20050;-68
2023/09/13 01:05:07;;;;;;;8.65;2.22;;;17.60;99.90;;;;;;5073321;28;20127;-67
2023/09/13 01:07:35;;;;;;;6.57;2.47;;;17.60;99.90;;;;;;5053704;28;20040;-69
2023/09/13 01:10:02;;;;;;;8.95;2.35;;;17.60;99.90;;;;;;5055331;28;20113;-68
2023/09/13 01:12:29;;;;;;;8.52;2.78;;;17.60;99.90;;;;;;5055033;28;20048;-68
2023/09/13 01:14:57;;;;;;;10.25;2.33;;;17.60;99.90;;;;;;5055379;28;20060;-68
2023/09/13 01:17:31;;;;;;;11.02;2.45;;;17.50;99.90;;;;;;5071181;28;20048;-69
2023/09/13 01:20:09;;;;;;;9.57;2.40;;;17.50;99.90;;;;;;5073468;28;20040;-69
2023/09/13 01:23:03;;;;;;;6.47;1.60;;;17.50;99.90;;;;;;5055487;28;20416;-69
2023/09/13 01:25:59;;;;;;;8.02;2.25;;;17.40;99.90;;;;;;5054747;28;20052;-69
2023/09/13 01:28:41;;;;;;;7.82;2.38;;;17.40;99.90;;;;;;5053238;28;20098;-69
2023/09/13 01:31:10;;;;;;;7.00;2.15;;;17.40;99.90;;;;;;5055465;28;20059;-70
2023/09/13 01:33:37;;;;;;;7.35;1.75;;;17.30;99.90;;;;;;5071861;28;20417;-70
2023/09/13 01:36:04;;;;;;;7.93;2.72;;;17.40;99.90;;;;;;5072968;28;20102;-70
2023/09/13 01:38:31;;;;;;;11.70;2.88;;;17.30;99.90;;;;;;5054494;28;20107;-70
2023/09/13 01:41:04;;;;;;;9.85;2.45;;;17.30;99.90;;;;;;5055148;28;20044;-69
2023/09/13 01:43:32;;;;;;;9.73;2.50;;;17.30;99.90;;;;;;5055195;28;20052;-69
2023/09/13 01:46:03;;;;;;;4.25;1.73;;;17.30;99.90;;;;;;5054177;28;20048;-69
2023/09/13 01:48:30;;;;;;;5.60;1.98;;;17.30;99.90;;;;;;5053522;28;20105;-69
2023/09/13 01:50:58;;;;;;;6.53;2.03;;;17.30;99.90;;;;;;5054815;28;20056;-69
2023/09/13 01:53:25;;;;;;;7.68;2.53;;;17.30;99.90;;;;;;5054289;28;20443;-69
2023/09/13 01:55:52;;;;;;;7.50;2.03;;;17.30;99.90;;;;;;5054763;28;20068;-68
2023/09/13 01:58:19;;;;;;;9.15;1.75;;;17.30;99.90;;;;;;5054383;28;20492;-69
2023/09/13 02:00:46;;;;;;;5.70;1.70;;;17.30;99.90;;;;;;5052199;28;20562;-69
2023/09/13 02:03:14;;;;;;;8.55;2.00;;;17.30;99.90;;;;;;5054584;28;20408;-69
2023/09/13 02:05:41;;;;;;;4.72;1.92;;;17.30;99.90;;;;;;5054802;28;20056;-69
2023/09/13 02:08:08;;;;;;;6.78;2.03;;;17.30;99.90;;;;;;5053986;28;20119;-68
2023/09/13 02:10:36;;;;;;;6.47;1.95;;;17.30;99.90;;;;;;5054223;28;20072;-68
2023/09/13 02:13:02;;;;;;;11.90;2.00;;;17.20;99.90;;;;;;5054466;28;20052;-68
2023/09/13 02:15:29;;;;;;;7.30;2.22;;;17.20;99.90;;;;;;5053491;28;20059;-68
2023/09/13 02:17:56;;;;;;;6.47;1.83;;;17.20;99.90;;;;;;5053948;28;20515;-69
2023/09/13 02:20:24;;;;;;;6.47;2.10;;;17.20;99.90;;;;;;5054297;28;20045;-69
2023/09/13 02:22:51;;;;;;;9.05;1.85;;;17.20;99.90;;;;;;5053853;28;20051;-68
2023/09/13 02:25:19;;;;;;;4.88;1.52;;;17.20;99.90;;;;;;5054155;28;20066;-68
2023/09/13 02:27:46;;;;;;;5.20;1.92;;;17.10;99.90;;;;;;5053319;28;20048;-68
2023/09/13 02:30:13;;;;;;;5.80;2.38;;;17.10;99.90;;;;;;5054273;28;20102;-68
2023/09/13 02:32:40;;;;;;;7.55;1.70;;;17.20;99.90;;;;;;5072302;28;20074;-69
2023/09/13 02:35:08;;;;;;;6.78;1.70;;;17.10;99.90;;;;;;5071648;28;20044;-68
2023/09/13 02:37:36;;;;;;;5.68;1.90;;;17.10;99.90;;;;;;5053960;28;20487;-69
2023/09/13 02:40:05;;;;;;;6.38;2.10;;;17.10;99.90;;;;;;5054287;28;20101;-68
2023/09/13 02:42:32;;;;;;;9.90;2.10;;;17.10;99.90;;;;;;5053727;28;20044;-68
2023/09/13 02:44:59;;;;;;;8.57;2.20;;;17.10;99.90;;;;;;5053141;28;20538;-68
2023/09/13 02:47:26;;;;;;;8.30;2.20;;;17.10;99.90;;;;;;5054176;28;20041;-68
2023/09/13 02:49:53;;;;;;;6.57;2.58;;;17.20;99.90;;;;;;5053538;28;20072;-68
2023/09/13 02:52:28;;;;;;;5.25;2.03;;;17.10;99.90;;;;;;5054036;28;20045;-68
2023/09/13 02:54:56;;;;;;;5.40;1.77;;;17.10;99.90;;;;;;5053605;28;20527;-68
2023/09/13 02:57:23;;;;;;;3.75;1.65;;;17.10;99.90;;;;;;5053223;28;20485;-68
2023/09/13 02:59:50;;;;;;;6.55;2.15;;;17.10;99.90;;;;;;5053869;28;20485;-68
2023/09/13 03:02:17;;;;;;;6.63;1.92;;;17.10;99.90;;;;;;5072214;28;20052;-68
2023/09/13 03:04:44;;;;;;;9.20;2.10;;;17.20;99.90;;;;;;5071029;28;20049;-68
2023/09/13 03:07:11;;;;;;;7.47;1.85;;;17.10;99.90;;;;;;5072007;28;20047;-68
2023/09/13 03:09:38;;;;;;;8.43;2.50;;;17.20;99.90;;;;;;5071919;28;20053;-68
2023/09/13 03:12:07;;;;;;;6.72;1.65;;;17.20;99.90;;;;;;5053361;28;20053;-69
2023/09/13 03:14:34;;;;;;;10.23;2.17;;;17.20;99.90;;;;;;5053670;28;20056;-69
2023/09/13 03:17:02;;;;;;;4.03;1.80;;;17.10;99.90;;;;;;5070866;28;20098;-67
2023/09/13 03:19:30;;;;;;;6.45;1.92;;;17.10;99.90;;;;;;5053796;28;20052;-69
2023/09/13 03:21:57;;;;;;;5.68;1.60;;;17.10;99.90;;;;;;5071516;28;20447;-67
2023/09/13 03:24:24;;;;;;;6.57;1.88;;;17.10;99.90;;;;;;5053335;28;20045;-68
2023/09/13 03:26:51;;;;;;;6.85;1.88;;;17.10;99.90;;;;;;5053749;28;20048;-68
2023/09/13 03:29:20;;;;;;;5.15;1.80;;;17.00;99.90;;;;;;5051647;28;20074;-68
2023/09/13 03:31:46;;;;;;;6.28;1.90;;;17.00;99.90;;;;;;5052939;28;20049;-68
2023/09/13 03:34:13;;;;;;;6.45;1.92;;;17.00;99.90;;;;;;5071457;28;20087;-68
2023/09/13 03:36:41;;;;;;;4.65;1.75;;;17.00;99.90;;;;;;5053258;28;20098;-67
2023/09/13 03:39:07;;;;;;;5.97;1.90;;;17.00;99.90;;;;;;5052858;28;20048;-67
2023/09/13 03:41:34;;;;;;;6.90;1.83;;;17.00;99.90;;;;;;5053351;28;20098;-68
2023/09/13 03:44:03;;;;;;;9.32;2.20;;;17.00;99.90;;;;;;5053570;28;20048;-68
2023/09/13 03:46:31;;;;;;;7.50;1.75;;;17.00;99.90;;;;;;5052995;28;20070;-68
2023/09/13 03:48:58;;;;;;;8.50;2.25;;;16.90;99.90;;;;;;5053535;28;20074;-67
2023/09/13 03:51:25;;;;;;;5.18;2.20;;;16.90;99.90;;;;;;5053555;28;20049;-68
2023/09/13 03:53:52;;;;;;;7.47;2.08;;;16.90;99.90;;;;;;5052919;28;20092;-68
2023/09/13 03:56:19;;;;;;;6.53;1.92;;;16.80;99.90;;;;;;5054563;28;20044;-68
2023/09/13 03:58:45;;;;;;;6.82;1.80;;;16.80;99.90;;;;;;5056736;28;20063;-67
2023/09/13 04:01:12;;;;;;;6.03;1.77;;;16.80;99.90;;;;;;5056415;28;20451;-71
2023/09/13 04:03:41;;;;;;;7.78;2.10;;;16.70;99.90;;;;;;5056881;28;20056;-72
2023/09/13 04:06:08;;;;;;;7.38;2.45;;;16.70;99.90;;;;;;5056360;28;20102;-74
2023/09/13 04:08:35;;;;;;;7.80;1.77;;;16.70;99.90;;;;;;5056771;28;20048;-75
2023/09/13 04:11:02;;;;;;;7.50;1.92;;;16.60;99.90;;;;;;5056462;28;20056;-70
2023/09/13 04:13:30;;;;;;;8.27;2.33;;;16.50;99.90;;;;;;5056268;28;20075;-70
2023/09/13 04:16:01;;;;;;;6.32;2.47;;;16.50;99.90;;;;;;5056218;28;20105;-75
2023/09/13 04:18:28;;;;;;;8.20;2.45;;;16.40;99.90;;;;;;5056831;28;20090;-76
2023/09/13 04:20:57;;;;;;;7.30;2.10;;;16.40;99.90;;;;;;5056205;28;20090;-75
2023/09/13 04:23:24;;;;;;;7.60;2.38;;;16.30;99.90;;;;;;5056335;28;20056;-68
2023/09/13 04:25:51;;;;;;;5.82;2.15;;;16.30;99.90;;;;;;5056201;28;20060;-68
2023/09/13 04:28:18;;;;;;;6.53;2.30;;;16.20;99.90;;;;;;5056203;28;20055;-69
2023/09/13 04:30:45;;;;;;;10.48;2.50;;;16.20;99.90;;;;;;5053393;28;20060;-68
2023/09/13 04:33:11;;;;;;;7.95;2.55;;;16.20;99.90;;;;;;5072933;28;20040;-69
2023/09/13 04:35:38;;;;;;;7.22;3.03;;;16.10;99.90;;;;;;5052951;28;20048;-68
2023/09/13 04:38:07;;;;;;;8.68;2.78;;;16.10;99.90;;;;;;5055647;28;20442;-69
2023/09/13 04:40:34;;;;;;;10.18;3.90;;;16.10;99.90;;;;;;5051723;28;20102;-69
2023/09/13 04:43:23;;;;;;;7.63;2.83;;;16.10;99.90;;;;;;5070499;28;20382;-69
2023/09/13 04:45:51;;;;;;;8.07;2.53;;;16.00;99.90;;;;;;5055147;28;20066;-68
2023/09/13 04:48:18;;;;;;;9.40;3.03;;;16.00;99.90;;;;;;5054589;28;20037;-68
2023/09/13 04:50:44;;;;;;;8.85;2.95;;;15.90;99.90;;;;;;5054652;28;20484;-68
2023/09/13 04:53:13;;;;;;;7.82;3.15;;;15.90;99.90;;;;;;5054408;28;20048;-68
2023/09/13 04:55:43;;;;;;;13.43;3.20;;;15.80;99.90;;;;;;5054551;28;20067;-67
2023/09/13 04:58:10;;;;;;;9.23;3.13;;;15.70;99.90;;;;;;5053333;28;20485;-69
2023/09/13 05:00:37;;;;;;;8.57;2.78;;;15.60;99.90;;;;;;5072585;28;20106;-68
2023/09/13 05:03:04;;;;;;;7.97;2.65;;;15.60;99.90;;;;;;5070122;28;20052;-67
2023/09/13 05:05:31;;;;;;;5.95;2.33;;;15.60;99.90;;;;;;5056265;28;20045;-68
2023/09/13 05:07:58;;;;;;;7.20;2.30;;;15.50;99.90;;;;;;5053105;28;20090;-66
2023/09/13 05:10:26;;;;;;;12.40;3.00;;;15.40;99.90;;;;;;5055131;28;20048;-67
2023/09/13 05:12:53;;;;;;;13.77;3.47;;;15.50;99.90;;;;;;5053259;28;20053;-68
2023/09/13 05:15:20;;;;;;;12.88;4.13;;;15.40;99.90;;;;;;5052256;28;20052;-67
2023/09/13 05:17:47;;;;;;;8.10;2.65;;;15.40;99.90;;;;;;5071944;28;20044;-67
2023/09/13 05:20:14;;;;;;;14.30;3.95;;;15.30;99.90;;;;;;5057459;28;20049;-68
2023/09/13 05:22:41;;;;;;;7.32;2.47;;;15.40;99.90;;;;;;5053199;28;20048;-67
2023/09/13 05:25:08;;;;;;;7.60;2.88;;;15.50;99.90;;;;;;5055315;28;20404;-67
2023/09/13 05:27:36;;;;;;;12.52;3.35;;;15.50;99.90;;;;;;5072245;28;20049;-67
2023/09/13 05:30:04;;;;;;;11.57;3.50;;;15.50;99.90;;;;;;5051687;28;20448;-69
2023/09/13 05:32:30;;;;;;;5.95;2.92;;;15.60;99.90;;;;;;5041918;28;20409;-67
2023/09/13 05:34:58;;;;;;;10.27;3.80;;;15.50;99.90;;;;;;5050533;28;20055;-66
2023/09/13 05:37:25;;;;;;;9.55;2.60;;;15.50;99.90;;;;;;5049390;28;20060;-67
2023/09/13 05:39:52;;;;;;;9.10;2.75;;;15.60;99.90;;;;;;5048675;28;20048;-69
2023/09/13 05:42:19;;;;;;;10.23;2.50;;;15.50;99.90;;;;;;5052774;28;20056;-69
2023/09/13 05:44:47;;;;;;;10.18;2.60;;;15.50;99.90;;;;;;5049647;28;20053;-67
2023/09/13 05:47:14;;;;;;;11.63;3.08;;;15.50;99.90;;;;;;5050817;28;20063;-67
2023/09/13 05:49:41;;;;;;;9.38;2.95;;;15.40;99.90;;;;;;5045081;28;20453;-67
2023/09/13 05:52:08;;;;;;;12.40;3.58;;;15.30;99.90;;;;;;5053490;28;20401;-66
2023/09/13 05:54:35;;;;;;;11.77;2.67;;;15.20;99.90;;;;;;5052527;28;20049;-67
2023/09/13 05:57:02;;;;;;;8.65;2.45;;;15.20;99.90;;;;;;5053455;28;20048;-65
2023/09/13 05:59:29;;;;;;;9.77;2.95;;;15.10;99.90;;;;;;5050566;28;20072;-67
2023/09/13 06:01:57;;;;;;;10.60;2.65;;;15.10;99.90;;;;;;5053223;28;20048;-67
2023/09/13 06:04:24;;;;;;;11.80;3.20;;;15.10;99.90;;;;;;5052026;28;20381;-67
2023/09/13 06:06:51;;;;;;;14.18;3.58;;;15.20;99.90;;;;;;5055013;28;20048;-68
2023/09/13 06:09:21;;;;;;;12.38;3.88;;;15.20;99.90;;;;;;5052644;28;20047;-67
2023/09/13 06:11:48;;;;;;;18.60;5.00;;;15.20;99.90;;;;;;5052334;28;20057;-67
2023/09/13 06:14:16;;;;;;;12.13;3.72;;;15.20;99.90;;;;;;5053430;28;20049;-67
2023/09/13 06:16:43;;;;;;;12.70;3.78;;;15.20;99.90;;;;;;5053572;28;20055;-67
2023/09/13 06:19:11;;;;;;;15.25;4.55;;;15.20;99.90;;;;;;5053380;28;20058;-67
2023/09/13 06:21:38;;;;;;;11.30;3.75;;;15.20;99.90;;;;;;5052229;28;20047;-66
2023/09/13 06:24:06;;;;;;;11.48;3.13;;;15.30;99.90;;;;;;5053627;28;20048;-66
2023/09/13 06:26:34;;;;;;;12.48;3.15;;;15.20;99.90;;;;;;5054986;28;20090;-66
2023/09/13 06:29:01;;;;;;;15.13;4.05;;;15.20;99.90;;;;;;5052751;28;20094;-69
2023/09/13 06:31:28;;;;;;;12.43;3.58;;;15.20;99.90;;;;;;5052392;28;20094;-69
2023/09/13 06:33:55;;;;;;;12.25;3.92;;;15.10;99.90;;;;;;5053940;28;20059;-69
2023/09/13 06:36:24;;;;;;;11.95;3.53;;;15.20;99.90;;;;;;5054084;28;20048;-69
2023/09/13 06:38:51;;;;;;;8.35;3.22;;;15.10;99.90;;;;;;5072141;28;20411;-69
2023/09/13 06:41:18;;;;;;;13.20;3.88;;;15.10;99.90;;;;;;5052800;28;20056;-68
2023/09/13 06:43:45;;;;;;;12.40;3.97;;;15.10;99.90;;;;;;5070844;28;20048;-67
2023/09/13 06:46:12;;;;;;;14.65;3.78;;;15.20;99.90;;;;;;5053719;28;20058;-67
2023/09/13 06:48:39;;;;;;;13.10;3.80;;;15.20;99.90;;;;;;5053175;28;20049;-68
2023/09/13 06:51:06;;;;;;;9.65;3.22;;;15.20;99.90;;;;;;5053951;28;20157;-69
2023/09/13 06:53:34;;;;;;;6.50;2.72;;;15.20;99.90;;;;;;5052959;28;20052;-70
2023/09/13 06:56:01;;;;;;;14.85;3.60;;;15.20;99.90;;;;;;5070945;28;20048;-69
2023/09/13 06:58:28;;;;;;;13.60;3.65;;;15.30;99.90;;;;;;5053331;28;20044;-66
2023/09/13 07:00:55;;;;;;;10.88;4.05;;;15.30;99.90;;;;;;5053801;28;20048;-67
2023/09/13 07:03:21;;;;;;;9.75;3.22;;;15.40;99.90;;;;;;5053390;28;20420;-67
2023/09/13 07:05:50;;;;;;;12.82;4.05;;;15.40;99.90;;;;;;5053767;28;20064;-66
2023/09/13 07:08:17;;;;;;;12.00;3.25;;;15.40;99.90;;;;;;5052110;28;20041;-69
2023/09/13 07:10:45;;;;;;;11.88;3.65;;;15.40;99.90;;;;;;5053093;28;20110;-66
2023/09/13 07:13:12;;;;;;;15.02;3.15;;;15.50;99.90;;;;;;5053863;28;20056;-66
2023/09/13 07:15:39;;;;;;;13.98;3.33;;;15.50;99.90;;;;;;5053598;28;20057;-67
2023/09/13 07:18:08;;;;;;;13.23;3.40;;;15.50;99.90;;;;;;5053205;28;20049;-68
2023/09/13 07:20:35;;;;;;;10.05;3.45;;;15.50;99.90;;;;;;5051666;28;20136;-67
2023/09/13 07:23:03;;;;;;;12.70;3.47;;;15.60;99.90;;;;;;5053172;28;20546;-65
2023/09/13 07:25:29;;;;;;;9.55;3.03;;;15.60;99.90;;;;;;5051797;28;20052;-67
2023/09/13 07:27:59;;;;;;;8.43;2.33;;;15.70;99.90;;;;;;5071706;28;20048;-66
2023/09/13 07:30:27;;;;;;;7.75;3.00;;;15.70;99.90;;;;;;5071347;28;20048;-66
2023/09/13 07:32:54;;;;;;;14.80;3.95;;;15.80;99.90;;;;;;5057423;28;20059;-65
2023/09/13 07:35:22;;;;;;;15.98;4.25;;;15.80;99.90;;;;;;5057684;28;20052;-68
2023/09/13 07:37:49;;;;;;;8.77;3.22;;;15.80;99.90;;;;;;5056426;28;20060;-67
2023/09/13 07:40:16;;;;;;;9.48;3.42;;;15.80;99.90;;;;;;5057143;28;20051;-67
2023/09/13 07:42:43;;;;;;;12.05;3.83;;;15.80;99.90;;;;;;5057313;28;20056;-67
2023/09/13 07:45:11;;;;;;;10.40;2.83;;;15.80;99.90;;;;;;5074763;28;20047;-67
2023/09/13 07:47:38;;;;;;;9.60;2.78;;;15.80;99.90;;;;;;5056221;28;20488;-66
2023/09/13 07:50:06;;;;;;;10.05;2.47;;;15.80;99.90;;;;;;5057213;28;20045;-66
2023/09/13 07:52:33;;;;;;;7.00;2.38;;;15.70;99.90;;;;;;5054100;28;20059;-67
2023/09/13 07:55:00;;;;;;;13.45;2.80;;;15.70;99.90;;;;;;5057015;28;20044;-66
2023/09/13 07:57:27;;;;;;;8.50;2.55;;;15.80;99.90;;;;;;5057139;28;20058;-66
2023/09/13 07:59:54;;;;;;;10.95;2.25;;;15.80;99.90;;;;;;5055654;28;20046;-67
2023/09/13 08:02:22;;;;;;;9.00;2.58;;;15.80;99.90;;;;;;5056913;28;20049;-66
2023/09/13 08:04:50;;;;;;;9.23;2.22;;;15.90;99.90;;;;;;5074961;28;21001;-67
2023/09/13 08:07:17;;;;;;;7.20;2.38;;;15.90;99.90;;;;;;5056204;28;20130;-68
2023/09/13 08:09:44;;;;;;;7.97;3.08;;;16.00;99.90;;;;;;5056716;28;20056;-66
2023/09/13 08:12:11;;;;;;;7.93;2.30;;;16.10;99.90;;;;;;5056909;28;20500;-66
2023/09/13 08:14:38;;;;;;;6.95;2.13;;;16.10;99.90;;;;;;5056104;28;20056;-66
2023/09/13 08:17:05;;;;;;;7.75;2.95;;;16.30;99.90;;;;;;5056218;28;20581;-65
2023/09/13 08:19:33;;;;;;;10.05;2.70;;;16.40;99.90;;;;;;5055772;28;20051;-67
2023/09/13 08:22:00;;;;;;;11.50;3.35;;;16.70;99.90;;;;;;5054714;28;20113;-66
2023/09/13 08:24:27;;;;;;;10.50;2.85;;;16.80;99.90;;;;;;5056273;28;20052;-67
2023/09/13 08:26:53;;;;;;;9.10;2.60;;;16.90;99.90;;;;;;5073708;28;20309;-67
2023/09/13 08:29:20;;;;;;;8.05;2.63;;;17.10;99.90;;;;;;5056357;28;20071;-67
2023/09/13 08:31:47;;;;;;;6.20;2.50;;;17.30;99.90;;;;;;5055996;28;20098;-66
2023/09/13 08:34:14;;;;;;;6.07;2.45;;;17.30;99.90;;;;;;5055737;28;20045;-68
2023/09/13 08:36:43;;;;;;;6.65;2.42;;;17.30;99.90;;;;;;5056238;28;20440;-69
2023/09/13 08:39:09;;;;;;;8.45;3.17;;;17.40;99.90;;;;;;5055893;28;20040;-68
2023/09/13 08:41:36;;;;;;;8.68;2.50;;;17.50;99.90;;;;;;5055293;28;20049;-68
2023/09/13 08:44:06;;;;;;;12.93;3.35;;;17.60;99.90;;;;;;5055948;28;20101;-68
2023/09/13 08:46:33;;;;;;;9.38;3.20;;;17.80;99.90;;;;;;5056079;28;20048;-69
2023/09/13 08:49:02;;;;;;;11.30;2.97;;;18.00;99.90;;;;;;5055135;28;20044;-69
2023/09/13 08:51:30;;;;;;;9.85;3.00;;;18.50;99.90;;;;;;5055740;28;20060;-69
2023/09/13 08:53:58;;;;;;;8.90;2.80;;;19.00;99.90;;;;;;5055955;28;20048;-70
2023/09/13 08:56:25;;;;;;;9.80;2.20;;;18.90;99.90;;;;;;5073206;28;20442;-70
2023/09/13 08:58:53;;;;;;;4.53;2.22;;;18.80;99.90;;;;;;5073126;28;20049;-70
2023/09/13 09:01:21;;;;;;;7.28;2.00;;;18.50;99.90;;;;;;5055650;28;20053;-69
2023/09/13 09:03:49;;;;;;;7.32;3.30;;;18.20;99.90;;;;;;5055218;28;20121;-70
2023/09/13 09:06:17;;;;;;;10.35;2.88;;;17.80;99.90;;;;;;5071630;28;20388;-69
2023/09/13 09:08:46;;;;;;;7.00;2.10;;;17.50;99.90;;;;;;5055047;28;20048;-68
2023/09/13 09:11:16;;;;;;;6.93;2.25;;;17.30;99.90;;;;;;5055628;28;20480;-68
2023/09/13 09:13:46;;;;;;;5.77;2.27;;;17.30;99.90;;;;;;5055200;28;20044;-68
2023/09/13 09:16:16;;;;;;;8.88;3.60;;;17.20;99.90;;;;;;5054679;28;20064;-69
2023/09/13 09:18:43;;;;;;;;;;;17.10;99.90;;;;;;5054189;28;20052;-69
2023/09/13 09:21:11;;;;;;;9.93;3.40;;;17.20;99.90;;;;;;5055375;28;19927;-69
2023/09/13 09:23:39;;;;;;;8.48;2.78;;;17.40;99.90;;;;;;5054957;28;20086;-69
2023/09/13 09:26:06;;;;;;;7.53;2.70;;;17.50;99.90;;;;;;5073223;28;20439;-69
2023/09/13 09:28:35;;;;;;;10.73;2.80;;;17.80;99.90;;;;;;5072851;28;20044;-69
2023/09/13 09:31:03;;;;;;;12.80;2.80;;;18.00;99.90;;;;;;5054787;28;20127;-69
2023/09/13 09:33:31;;;;;;;9.30;2.75;;;18.10;99.90;;;;;;5055065;28;20080;-69
2023/09/13 09:35:59;;;;;;;7.32;2.67;;;18.10;99.90;;;;;;5055089;28;20461;-68
2023/09/13 09:38:27;;;;;;;8.63;2.47;;;18.20;99.90;;;;;;5054496;28;20048;-69
2023/09/13 09:40:58;;;;;;;6.95;2.67;;;18.30;99.90;;;;;;5055056;28;20574;-69
2023/09/13 09:43:25;;;;;;;8.70;3.00;;;18.30;99.90;;;;;;5073054;28;20044;-69
2023/09/13 09:45:53;;;;;;;10.40;2.88;;;18.40;99.90;;;;;;5054356;28;20105;-69
2023/09/13 09:48:21;;;;;;;7.97;2.90;;;18.40;99.90;;;;;;5054909;28;20052;-68
2023/09/13 09:50:49;;;;;;;8.57;2.47;;;18.30;99.90;;;;;;5054058;28;20064;-68
2023/09/13 09:53:17;;;;;;;7.30;2.72;;;18.40;99.90;;;;;;5054485;28;20519;-67
2023/09/13 09:55:46;;;;;;;6.30;2.20;;;18.50;99.90;;;;;;5054467;28;20106;-68
2023/09/13 09:58:13;;;;;;;5.55;2.08;;;18.50;99.90;;;;;;5054199;28;20135;-68
2023/09/13 10:00:48;;;;;;;7.45;2.40;;;18.50;99.90;;;;;;5053233;28;20089;-68
2023/09/13 10:03:18;;;;;;;9.02;2.38;;;18.60;99.90;;;;;;5052098;28;20132;-68
2023/09/13 10:05:56;;;;;;;6.15;2.22;;;18.90;99.90;;;;;;5054030;28;20109;-68
2023/09/13 10:08:40;;;;;;;6.22;2.30;;;19.40;99.90;;;;;;5054556;28;20048;-68
2023/09/13 10:11:07;;;;;;;5.13;2.22;;;20.20;99.90;;;;;;5054519;28;20427;-68
2023/09/13 10:13:35;;;;;;;5.93;2.42;;;21.00;99.90;;;;;;5071929;28;20048;-68
2023/09/13 10:16:02;;;;;;;5.90;2.28;;;21.90;99.90;;;;;;5053797;28;20048;-68
2023/09/13 10:18:32;;;;;;;5.30;2.30;;;22.20;99.90;;;;;;5054052;28;20125;-67
2023/09/13 10:21:00;;;;;;;5.35;2.10;;;22.50;99.90;;;;;;5053582;28;20033;-67
2023/09/13 10:23:39;;;;;;;4.65;2.55;;;22.90;99.90;;;;;;5054321;28;20053;-67
2023/09/13 10:26:08;;;;;;;5.57;3.10;;;23.70;99.90;;;;;;5053928;28;20053;-78
2023/09/13 10:28:39;;;;;;;6.47;2.58;;;25.20;99.90;;;;;;5045890;28;20484;-69
2023/09/13 10:31:12;;;;;;;5.10;2.30;;;26.40;99.90;;;;;;5068189;28;20060;-69
2023/09/13 10:33:44;;;;;;;6.20;2.50;;;27.40;99.90;;;;;;5053347;28;20048;-69
2023/09/13 10:36:18;;;;;;;5.18;2.33;;;27.40;97.40;;;;;;5070096;28;20492;-69
2023/09/13 10:38:49;;;;;;;5.50;2.55;;;27.90;97.50;;;;;;5050587;28;20447;-69
2023/09/13 10:41:18;;;;;;;5.55;2.15;;;27.80;96.70;;;;;;5051303;28;20124;-69
2023/09/13 10:43:48;;;;;;;4.32;2.60;;;27.40;96.00;;;;;;5055758;28;20060;-69
2023/09/13 10:46:16;;;;;;;4.72;2.33;;;27.40;96.60;;;;;;5051892;28;20048;-69
2023/09/13 10:48:46;;;;;;;3.83;1.70;;;28.10;96.50;;;;;;5049718;28;20117;-69
2023/09/13 10:51:16;;;;;;;6.10;2.15;;;28.30;94.40;;;;;;5051847;28;20435;-69
2023/09/13 10:53:45;;;;;;;6.00;2.65;;;27.90;93.60;;;;;;5072330;28;20464;-69
2023/09/13 10:56:15;;;;;;;5.32;1.88;;;27.70;95.30;;;;;;5051156;28;20492;-68
2023/09/13 10:58:45;;;;;;;7.22;2.47;;;28.40;94.80;;;;;;5049728;28;20398;-68
2023/09/13 11:01:12;;;;;;;;;;;28.50;91.70;;;;;;5048438;28;20044;-68
2023/09/13 11:03:40;;;;;;;4.50;1.98;;;28.70;92.40;;;;;;5053714;28;19921;-68
2023/09/13 11:06:09;;;;;;;3.67;1.80;;;28.50;93.20;;;;;;5055254;28;20048;-68
2023/09/13 11:08:36;;;;;;;4.85;1.80;;;28.30;92.80;;;;;;5055204;28;20044;-68
2023/09/13 11:11:16;;;;;;;4.50;1.45;;;27.50;93.40;;;;;;5075946;28;20389;-69
2023/09/13 11:13:44;;;;;;;4.75;1.75;;;26.80;92.60;;;;;;5057492;28;20088;-68
2023/09/13 11:16:15;;;;;;;3.70;1.77;;;26.10;94.20;;;;;;5057122;28;20135;-67
2023/09/13 11:18:48;;;;;;;5.70;1.90;;;25.70;94.70;;;;;;5057431;28;20560;-67
2023/09/13 11:21:21;;;;;;;3.65;2.15;;;25.60;95.10;;;;;;5057591;28;20041;-68
2023/09/13 11:23:52;;;;;;;3.13;1.20;;;26.30;93.60;;;;;;5057061;28;20071;-68
2023/09/13 11:26:43;;;;;;;4.65;1.73;;;27.10;92.40;;;;;;5056700;28;20139;-68
2023/09/13 11:29:24;;;;;;;4.25;1.55;;;26.70;91.80;;;;;;5057108;28;20375;-68
2023/09/13 11:31:58;;;;;;;5.30;1.95;;;26.50;92.70;;;;;;5074492;28;20079;-68
2023/09/13 11:34:25;;;;;;;3.53;1.48;;;26.10;93.00;;;;;;5056966;28;20052;-68
2023/09/13 11:36:58;;;;;;;3.35;1.55;;;26.60;93.00;;;;;;5056852;28;20056;-68
2023/09/13 11:39:25;;;;;;;5.50;1.55;;;28.00;92.90;;;;;;5057150;28;20048;-68
2023/09/13 11:41:53;;;;;;;5.25;1.75;;;28.00;92.30;;;;;;5074894;28;20566;-68
2023/09/13 11:44:21;;;;;;;4.88;1.42;;;27.30;92.40;;;;;;5056640;28;20052;-68
2023/09/13 11:46:49;;;;;;;4.45;1.65;;;26.40;92.30;;;;;;5057207;28;20052;-67
2023/09/13 11:49:20;;;;;;;6.10;1.70;;;25.40;93.50;;;;;;5075343;28;20056;-68
2023/09/13 11:51:50;;;;;;;4.63;2.00;;;24.60;94.50;;;;;;5056584;28;20127;-68
2023/09/13 11:54:19;;;;;;;5.93;2.05;;;23.80;96.00;;;;;;5074767;28;20103;-67
2023/09/13 11:56:46;;;;;;;5.03;1.50;;;23.10;96.90;;;;;;5057224;28;20106;-67
2023/09/13 11:59:14;;;;;;;4.72;1.90;;;22.60;97.60;;;;;;5071808;28;20800;-67
2023/09/13 12:01:44;;;;;;;5.25;1.58;;;22.40;98.50;;;;;;5056853;28;20048;-68
2023/09/13 12:04:12;;;;;;;5.43;1.58;;;23.10;98.50;;;;;;5056751;28;20044;-69
2023/09/13 12:06:43;;;;;;;6.00;1.45;;;23.10;97.70;;;;;;5056250;28;20049;-68
2023/09/13 12:09:16;;;;;;;5.85;1.70;;;23.00;98.50;;;;;;5074777;28;20369;-67
2023/09/13 12:11:49;;;;;;;5.95;1.80;;;22.60;98.40;;;;;;5056238;28;20478;-67
2023/09/13 12:14:16;;;;;;;5.45;2.30;;;22.40;98.80;;;;;;5056818;28;20056;-67
2023/09/13 12:16:43;;;;;;;9.30;2.53;;;22.10;99.60;;;;;;5055878;28;20058;-68
2023/09/13 12:19:12;;;;;;;7.03;1.80;;;21.80;99.90;;;;;;5056063;28;20071;-68
2023/09/13 12:21:43;;;;;;;5.22;1.80;;;21.70;99.80;;;;;;5056122;28;20045;-67
2023/09/13 12:24:12;;;;;;;5.57;1.63;;;22.20;99.90;;;;;;5056560;28;20048;-68
2023/09/13 12:26:39;;;;;;;5.13;1.97;;;22.40;99.90;;;;;;5055906;28;20056;-68
2023/09/13 12:29:07;;;;;;;6.97;1.70;;;22.40;99.90;;;;;;5074228;28;20283;-67
2023/09/13 12:31:35;;;;;;;10.13;2.13;;;22.30;99.90;;;;;;5055785;28;20047;-68
2023/09/13 12:34:02;;;;;;;8.80;2.00;;;22.00;99.90;;;;;;5055545;28;20052;-69
2023/09/13 12:36:29;;;;;;;8.50;2.83;;;21.60;99.80;;;;;;5056303;28;20052;-68
2023/09/13 12:38:59;;;;;;;8.80;2.05;;;21.50;99.90;;;;;;5056333;28;20047;-67
2023/09/13 12:41:30;;;;;;;5.22;1.55;;;21.30;99.90;;;;;;5055257;28;20048;-67
2023/09/13 12:43:58;;;;;;;5.55;1.98;;;20.70;99.90;;;;;;5054978;28;20044;-67
2023/09/13 12:46:28;;;;;;;10.75;2.30;;;20.90;99.90;;;;;;5053564;28;20052;-67
2023/09/13 12:48:57;;;;;;;8.38;1.98;;;20.60;99.90;;;;;;5054036;28;20056;-67
2023/09/13 12:51:28;;;;;;;4.50;1.95;;;20.50;99.90;;;;;;5055925;28;20434;-67